sensor_id;sensor_type;location;lat;lon;timestamp;temperature;humidity
21171;DHT22;10743;52.160;20.910;2023-12-20T00:02:17;23.70;38.30
21171;DHT22;10743;52.160;20.910;2023-12-20T00:04:43;23.70;38.30
21171;DHT22;10743;52.160;20.910;2023-12-20T00:07:11;23.70;38.50
21171;DHT22;10743;52.160;20.910;2023-12-20T00:09:38;23.70;38.40
21171;DHT22;10743;52.160;20.910;2023-12-20T00:12:05;23.70;38.40
21171;DHT22;10743;52.160;20.910;2023-12-20T00:14:32;23.70;38.40
21171;DHT22;10743;52.160;20.910;2023-12-20T00:16:59;23.70;38.50
21171;DHT22;10743;52.160;20.910;2023-12-20T00:19:26;23.70;38.50
21171;DHT22;10743;52.160;20.910;2023-12-20T00:21:53;23.80;38.50
21171;DHT22;10743;52.160;20.910;2023-12-20T00:24:20;23.70;38.40
21171;DHT22;10743;52.160;20.910;2023-12-20T00:26:47;23.80;38.40
21171;DHT22;10743;52.160;20.910;2023-12-20T00:29:14;23.80;38.40
21171;DHT22;10743;52.160;20.910;2023-12-20T00:31:41;23.80;38.50
21171;DHT22;10743;52.160;20.910;2023-12-20T00:34:08;23.70;38.40
21171;DHT22;10743;52.160;20.910;2023-12-20T00:36:36;23.80;38.40
21171;DHT22;10743;52.160;20.910;2023-12-20T00:39:03;23.80;38.50
21171;DHT22;10743;52.160;20.910;2023-12-20T00:41:31;23.80;38.40
21171;DHT22;10743;52.160;20.910;2023-12-20T00:43:58;23.80;38.40
21171;DHT22;10743;52.160;20.910;2023-12-20T00:46:25;23.80;38.40
21171;DHT22;10743;52.160;20.910;2023-12-20T00:48:52;23.80;38.40
21171;DHT22;10743;52.160;20.910;2023-12-20T00:51:19;23.80;38.60
21171;DHT22;10743;52.160;20.910;2023-12-20T00:53:46;23.80;38.50
21171;DHT22;10743;52.160;20.910;2023-12-20T00:56:16;23.80;38.50
21171;DHT22;10743;52.160;20.910;2023-12-20T00:58:43;23.80;38.60
21171;DHT22;10743;52.160;20.910;2023-12-20T01:01:10;23.80;38.50
21171;DHT22;10743;52.160;20.910;2023-12-20T01:03:37;23.80;38.50
21171;DHT22;10743;52.160;20.910;2023-12-20T01:06:05;23.80;38.60
21171;DHT22;10743;52.160;20.910;2023-12-20T01:08:32;23.80;38.50
21171;DHT22;10743;52.160;20.910;2023-12-20T01:11:04;23.80;38.50
21171;DHT22;10743;52.160;20.910;2023-12-20T01:13:32;23.80;38.50
21171;DHT22;10743;52.160;20.910;2023-12-20T01:15:59;23.80;38.50
21171;DHT22;10743;52.160;20.910;2023-12-20T01:18:26;23.80;38.40
21171;DHT22;10743;52.160;20.910;2023-12-20T01:20:53;23.80;38.40
21171;DHT22;10743;52.160;20.910;2023-12-20T01:23:20;23.80;38.40
21171;DHT22;10743;52.160;20.910;2023-12-20T01:25:48;23.80;38.50
21171;DHT22;10743;52.160;20.910;2023-12-20T01:28:15;23.80;39.20
21171;DHT22;10743;52.160;20.910;2023-12-20T01:30:42;23.80;39.20
21171;DHT22;10743;52.160;20.910;2023-12-20T01:33:10;23.80;38.60
21171;DHT22;10743;52.160;20.910;2023-12-20T01:35:37;23.80;38.60
21171;DHT22;10743;52.160;20.910;2023-12-20T01:38:04;23.80;38.50
21171;DHT22;10743;52.160;20.910;2023-12-20T01:40:31;23.80;38.50
21171;DHT22;10743;52.160;20.910;2023-12-20T01:43:04;23.80;38.50
21171;DHT22;10743;52.160;20.910;2023-12-20T01:45:35;23.80;38.50
21171;DHT22;10743;52.160;20.910;2023-12-20T01:48:04;23.80;38.50
21171;DHT22;10743;52.160;20.910;2023-12-20T01:50:32;23.80;38.50
21171;DHT22;10743;52.160;20.910;2023-12-20T01:53:03;23.80;38.50
21171;DHT22;10743;52.160;20.910;2023-12-20T01:55:34;23.80;38.40
21171;DHT22;10743;52.160;20.910;2023-12-20T01:58:03;23.80;38.40
21171;DHT22;10743;52.160;20.910;2023-12-20T02:00:31;23.80;38.40
21171;DHT22;10743;52.160;20.910;2023-12-20T02:03:01;23.80;38.40
21171;DHT22;10743;52.160;20.910;2023-12-20T02:05:30;23.80;38.40
21171;DHT22;10743;52.160;20.910;2023-12-20T02:07:58;23.80;38.30
21171;DHT22;10743;52.160;20.910;2023-12-20T02:10:25;23.80;38.20
21171;DHT22;10743;52.160;20.910;2023-12-20T02:12:53;23.80;38.30
21171;DHT22;10743;52.160;20.910;2023-12-20T02:15:20;23.80;38.40
21171;DHT22;10743;52.160;20.910;2023-12-20T02:17:47;23.80;38.50
21171;DHT22;10743;52.160;20.910;2023-12-20T02:20:15;23.70;38.50
21171;DHT22;10743;52.160;20.910;2023-12-20T02:22:42;23.70;38.60
21171;DHT22;10743;52.160;20.910;2023-12-20T02:25:10;23.70;38.60
21171;DHT22;10743;52.160;20.910;2023-12-20T02:27:37;23.70;38.60
21171;DHT22;10743;52.160;20.910;2023-12-20T02:30:06;23.70;38.60
21171;DHT22;10743;52.160;20.910;2023-12-20T02:32:33;23.80;38.50
21171;DHT22;10743;52.160;20.910;2023-12-20T02:35:00;23.70;38.50
21171;DHT22;10743;52.160;20.910;2023-12-20T02:37:27;23.70;38.50
21171;DHT22;10743;52.160;20.910;2023-12-20T02:39:54;23.70;39.20
21171;DHT22;10743;52.160;20.910;2023-12-20T02:42:21;23.70;38.50
21171;DHT22;10743;52.160;20.910;2023-12-20T02:44:49;23.70;38.50
21171;DHT22;10743;52.160;20.910;2023-12-20T02:47:16;23.70;38.50
21171;DHT22;10743;52.160;20.910;2023-12-20T02:49:43;23.70;38.40
21171;DHT22;10743;52.160;20.910;2023-12-20T02:52:10;23.80;38.50
21171;DHT22;10743;52.160;20.910;2023-12-20T02:54:37;23.70;38.40
21171;DHT22;10743;52.160;20.910;2023-12-20T02:57:04;23.80;38.40
21171;DHT22;10743;52.160;20.910;2023-12-20T02:59:31;23.70;38.40
21171;DHT22;10743;52.160;20.910;2023-12-20T03:01:58;23.70;38.40
21171;DHT22;10743;52.160;20.910;2023-12-20T03:04:25;23.80;38.40
21171;DHT22;10743;52.160;20.910;2023-12-20T03:06:52;23.80;38.30
21171;DHT22;10743;52.160;20.910;2023-12-20T03:09:19;23.80;38.20
21171;DHT22;10743;52.160;20.910;2023-12-20T03:11:46;23.80;38.30
21171;DHT22;10743;52.160;20.910;2023-12-20T03:14:13;23.80;38.30
21171;DHT22;10743;52.160;20.910;2023-12-20T03:16:40;23.80;38.30
21171;DHT22;10743;52.160;20.910;2023-12-20T03:19:07;23.80;38.30
21171;DHT22;10743;52.160;20.910;2023-12-20T03:21:34;23.80;38.20
21171;DHT22;10743;52.160;20.910;2023-12-20T03:24:01;23.80;38.30
21171;DHT22;10743;52.160;20.910;2023-12-20T03:26:29;23.80;38.20
21171;DHT22;10743;52.160;20.910;2023-12-20T03:28:56;23.80;38.20
21171;DHT22;10743;52.160;20.910;2023-12-20T03:31:23;23.80;38.20
21171;DHT22;10743;52.160;20.910;2023-12-20T03:33:50;23.80;38.20
21171;DHT22;10743;52.160;20.910;2023-12-20T03:36:19;23.80;38.20
21171;DHT22;10743;52.160;20.910;2023-12-20T03:38:47;23.80;38.20
21171;DHT22;10743;52.160;20.910;2023-12-20T03:41:14;23.80;38.20
21171;DHT22;10743;52.160;20.910;2023-12-20T03:43:41;23.80;38.20
21171;DHT22;10743;52.160;20.910;2023-12-20T03:46:08;23.80;38.20
21171;DHT22;10743;52.160;20.910;2023-12-20T03:48:36;23.80;38.20
21171;DHT22;10743;52.160;20.910;2023-12-20T03:51:03;23.80;38.20
21171;DHT22;10743;52.160;20.910;2023-12-20T03:53:30;23.80;38.30
21171;DHT22;10743;52.160;20.910;2023-12-20T03:55:57;23.80;38.20
21171;DHT22;10743;52.160;20.910;2023-12-20T03:58:24;23.80;38.20
21171;DHT22;10743;52.160;20.910;2023-12-20T04:00:51;23.80;38.20
21171;DHT22;10743;52.160;20.910;2023-12-20T04:03:18;23.80;38.20
21171;DHT22;10743;52.160;20.910;2023-12-20T04:05:45;23.80;38.20
21171;DHT22;10743;52.160;20.910;2023-12-20T04:08:12;23.80;38.20
21171;DHT22;10743;52.160;20.910;2023-12-20T04:10:39;23.80;38.20
21171;DHT22;10743;52.160;20.910;2023-12-20T04:13:06;23.70;38.30
21171;DHT22;10743;52.160;20.910;2023-12-20T04:15:33;23.70;38.20
21171;DHT22;10743;52.160;20.910;2023-12-20T04:18:01;23.80;38.30
21171;DHT22;10743;52.160;20.910;2023-12-20T04:20:28;23.80;38.20
21171;DHT22;10743;52.160;20.910;2023-12-20T04:22:55;23.80;38.30
21171;DHT22;10743;52.160;20.910;2023-12-20T04:25:22;23.70;38.30
21171;DHT22;10743;52.160;20.910;2023-12-20T04:27:49;23.70;38.30
21171;DHT22;10743;52.160;20.910;2023-12-20T04:30:16;23.70;38.30
21171;DHT22;10743;52.160;20.910;2023-12-20T04:32:43;23.80;38.30
21171;DHT22;10743;52.160;20.910;2023-12-20T04:35:10;23.80;38.30
21171;DHT22;10743;52.160;20.910;2023-12-20T04:37:37;23.70;38.30
21171;DHT22;10743;52.160;20.910;2023-12-20T04:40:05;23.70;38.30
21171;DHT22;10743;52.160;20.910;2023-12-20T04:42:32;23.70;38.40
21171;DHT22;10743;52.160;20.910;2023-12-20T04:44:59;23.80;38.30
21171;DHT22;10743;52.160;20.910;2023-12-20T04:47:26;23.80;38.40
21171;DHT22;10743;52.160;20.910;2023-12-20T04:49:53;23.70;38.40
21171;DHT22;10743;52.160;20.910;2023-12-20T04:52:21;23.70;38.40
21171;DHT22;10743;52.160;20.910;2023-12-20T04:54:48;23.70;38.40
21171;DHT22;10743;52.160;20.910;2023-12-20T04:57:15;23.80;38.40
21171;DHT22;10743;52.160;20.910;2023-12-20T04:59:42;23.80;38.40
21171;DHT22;10743;52.160;20.910;2023-12-20T05:02:09;23.80;38.40
21171;DHT22;10743;52.160;20.910;2023-12-20T05:04:36;23.80;38.40
21171;DHT22;10743;52.160;20.910;2023-12-20T05:07:03;23.70;38.50
21171;DHT22;10743;52.160;20.910;2023-12-20T05:09:32;23.70;38.40
21171;DHT22;10743;52.160;20.910;2023-12-20T05:12:00;23.70;38.50
21171;DHT22;10743;52.160;20.910;2023-12-20T05:14:27;23.70;38.50
21171;DHT22;10743;52.160;20.910;2023-12-20T05:16:54;23.70;38.40
21171;DHT22;10743;52.160;20.910;2023-12-20T05:19:21;23.80;38.50
21171;DHT22;10743;52.160;20.910;2023-12-20T05:21:48;23.80;38.50
21171;DHT22;10743;52.160;20.910;2023-12-20T05:24:16;23.70;38.50
21171;DHT22;10743;52.160;20.910;2023-12-20T05:26:43;23.80;38.60
21171;DHT22;10743;52.160;20.910;2023-12-20T05:29:10;23.70;38.50
21171;DHT22;10743;52.160;20.910;2023-12-20T05:31:37;23.70;38.50
21171;DHT22;10743;52.160;20.910;2023-12-20T05:34:04;23.70;38.50
21171;DHT22;10743;52.160;20.910;2023-12-20T05:36:31;23.70;38.50
21171;DHT22;10743;52.160;20.910;2023-12-20T05:38:58;23.80;38.50
21171;DHT22;10743;52.160;20.910;2023-12-20T05:41:25;23.80;38.40
21171;DHT22;10743;52.160;20.910;2023-12-20T05:43:52;23.80;38.30
21171;DHT22;10743;52.160;20.910;2023-12-20T05:46:19;23.80;38.30
21171;DHT22;10743;52.160;20.910;2023-12-20T05:48:48;23.80;38.30
21171;DHT22;10743;52.160;20.910;2023-12-20T05:51:15;23.80;38.30
21171;DHT22;10743;52.160;20.910;2023-12-20T05:53:42;23.70;38.30
21171;DHT22;10743;52.160;20.910;2023-12-20T05:56:10;23.80;38.30
21171;DHT22;10743;52.160;20.910;2023-12-20T05:58:38;23.80;38.30
21171;DHT22;10743;52.160;20.910;2023-12-20T06:01:06;23.80;38.30
21171;DHT22;10743;52.160;20.910;2023-12-20T06:03:35;23.70;38.20
21171;DHT22;10743;52.160;20.910;2023-12-20T06:06:06;23.80;38.30
21171;DHT22;10743;52.160;20.910;2023-12-20T06:08:42;23.70;38.20
21171;DHT22;10743;52.160;20.910;2023-12-20T06:11:10;23.70;38.20
21171;DHT22;10743;52.160;20.910;2023-12-20T06:13:37;23.70;38.20
21171;DHT22;10743;52.160;20.910;2023-12-20T06:16:05;23.70;38.20
21171;DHT22;10743;52.160;20.910;2023-12-20T06:18:34;23.70;38.30
21171;DHT22;10743;52.160;20.910;2023-12-20T06:21:01;23.70;38.30
21171;DHT22;10743;52.160;20.910;2023-12-20T06:23:29;23.70;38.40
21171;DHT22;10743;52.160;20.910;2023-12-20T06:25:56;23.60;38.30
21171;DHT22;10743;52.160;20.910;2023-12-20T06:28:23;23.70;38.40
21171;DHT22;10743;52.160;20.910;2023-12-20T06:30:50;23.70;38.40
21171;DHT22;10743;52.160;20.910;2023-12-20T06:33:19;23.70;38.40
21171;DHT22;10743;52.160;20.910;2023-12-20T06:35:48;23.60;38.40
21171;DHT22;10743;52.160;20.910;2023-12-20T06:38:17;23.70;38.40
21171;DHT22;10743;52.160;20.910;2023-12-20T06:40:45;23.60;38.40
21171;DHT22;10743;52.160;20.910;2023-12-20T06:43:13;23.60;38.40
21171;DHT22;10743;52.160;20.910;2023-12-20T06:45:58;23.60;38.50
21171;DHT22;10743;52.160;20.910;2023-12-20T06:48:27;23.60;38.50
21171;DHT22;10743;52.160;20.910;2023-12-20T06:50:54;23.60;38.40
21171;DHT22;10743;52.160;20.910;2023-12-20T06:53:21;23.70;38.50
21171;DHT22;10743;52.160;20.910;2023-12-20T06:55:48;23.60;38.50
21171;DHT22;10743;52.160;20.910;2023-12-20T06:58:15;23.60;38.60
21171;DHT22;10743;52.160;20.910;2023-12-20T07:00:42;23.60;38.60
21171;DHT22;10743;52.160;20.910;2023-12-20T07:03:09;23.60;38.60
21171;DHT22;10743;52.160;20.910;2023-12-20T07:05:36;23.60;38.60
21171;DHT22;10743;52.160;20.910;2023-12-20T07:08:04;23.60;38.60
21171;DHT22;10743;52.160;20.910;2023-12-20T07:10:32;23.70;38.60
21171;DHT22;10743;52.160;20.910;2023-12-20T07:12:59;23.70;38.60
21171;DHT22;10743;52.160;20.910;2023-12-20T07:15:26;23.70;38.50
21171;DHT22;10743;52.160;20.910;2023-12-20T07:17:53;23.70;38.50
21171;DHT22;10743;52.160;20.910;2023-12-20T07:20:21;23.70;38.50
21171;DHT22;10743;52.160;20.910;2023-12-20T07:22:48;23.70;38.60
21171;DHT22;10743;52.160;20.910;2023-12-20T07:25:15;23.70;38.60
21171;DHT22;10743;52.160;20.910;2023-12-20T07:27:42;23.70;38.50
21171;DHT22;10743;52.160;20.910;2023-12-20T07:30:11;23.70;38.50
21171;DHT22;10743;52.160;20.910;2023-12-20T07:32:39;23.70;38.40
21171;DHT22;10743;52.160;20.910;2023-12-20T07:35:07;23.70;38.40
21171;DHT22;10743;52.160;20.910;2023-12-20T07:37:34;23.70;38.40
21171;DHT22;10743;52.160;20.910;2023-12-20T07:40:01;23.70;38.40
21171;DHT22;10743;52.160;20.910;2023-12-20T07:42:30;23.70;38.50
21171;DHT22;10743;52.160;20.910;2023-12-20T07:44:57;23.70;38.50
21171;DHT22;10743;52.160;20.910;2023-12-20T07:47:24;23.70;38.50
21171;DHT22;10743;52.160;20.910;2023-12-20T07:49:52;23.70;38.50
21171;DHT22;10743;52.160;20.910;2023-12-20T07:52:19;23.70;38.40
21171;DHT22;10743;52.160;20.910;2023-12-20T07:54:48;23.70;38.50
21171;DHT22;10743;52.160;20.910;2023-12-20T07:57:15;23.70;38.50
21171;DHT22;10743;52.160;20.910;2023-12-20T07:59:42;23.70;38.50
21171;DHT22;10743;52.160;20.910;2023-12-20T08:02:11;23.70;38.40
21171;DHT22;10743;52.160;20.910;2023-12-20T08:04:38;23.70;38.60
21171;DHT22;10743;52.160;20.910;2023-12-20T08:07:05;23.70;38.30
21171;DHT22;10743;52.160;20.910;2023-12-20T08:09:32;23.70;38.30
21171;DHT22;10743;52.160;20.910;2023-12-20T08:12:00;23.70;38.30
21171;DHT22;10743;52.160;20.910;2023-12-20T08:14:27;23.70;38.30
21171;DHT22;10743;52.160;20.910;2023-12-20T08:16:55;23.70;38.30
21171;DHT22;10743;52.160;20.910;2023-12-20T08:19:22;23.80;38.20
21171;DHT22;10743;52.160;20.910;2023-12-20T08:21:49;23.70;38.20
21171;DHT22;10743;52.160;20.910;2023-12-20T08:24:16;23.70;38.20
21171;DHT22;10743;52.160;20.910;2023-12-20T08:26:43;23.70;38.20
21171;DHT22;10743;52.160;20.910;2023-12-20T08:29:13;23.70;38.20
21171;DHT22;10743;52.160;20.910;2023-12-20T08:31:40;23.70;38.20
21171;DHT22;10743;52.160;20.910;2023-12-20T08:34:08;23.70;38.30
21171;DHT22;10743;52.160;20.910;2023-12-20T08:36:35;23.70;38.40
21171;DHT22;10743;52.160;20.910;2023-12-20T08:39:02;23.70;38.40
21171;DHT22;10743;52.160;20.910;2023-12-20T08:41:33;23.70;38.50
21171;DHT22;10743;52.160;20.910;2023-12-20T08:43:59;23.60;38.40
21171;DHT22;10743;52.160;20.910;2023-12-20T08:46:26;23.60;38.40
21171;DHT22;10743;52.160;20.910;2023-12-20T08:48:53;23.70;39.10
21171;DHT22;10743;52.160;20.910;2023-12-20T08:51:21;23.70;38.40
21171;DHT22;10743;52.160;20.910;2023-12-20T08:53:50;23.70;38.30
21171;DHT22;10743;52.160;20.910;2023-12-20T08:56:17;23.60;38.30
21171;DHT22;10743;52.160;20.910;2023-12-20T08:58:47;23.60;38.40
21171;DHT22;10743;52.160;20.910;2023-12-20T09:01:14;23.70;38.40
21171;DHT22;10743;52.160;20.910;2023-12-20T09:03:42;23.70;38.40
21171;DHT22;10743;52.160;20.910;2023-12-20T09:06:10;23.70;38.40
21171;DHT22;10743;52.160;20.910;2023-12-20T09:08:37;23.70;38.50
21171;DHT22;10743;52.160;20.910;2023-12-20T09:11:04;23.70;38.50
21171;DHT22;10743;52.160;20.910;2023-12-20T09:13:31;23.70;38.50
21171;DHT22;10743;52.160;20.910;2023-12-20T09:15:59;23.70;38.50
21171;DHT22;10743;52.160;20.910;2023-12-20T09:18:26;23.70;38.50
21171;DHT22;10743;52.160;20.910;2023-12-20T09:20:53;23.60;38.50
21171;DHT22;10743;52.160;20.910;2023-12-20T09:23:21;23.60;38.50
21171;DHT22;10743;52.160;20.910;2023-12-20T09:25:48;23.60;38.50
21171;DHT22;10743;52.160;20.910;2023-12-20T09:28:15;23.70;38.60
21171;DHT22;10743;52.160;20.910;2023-12-20T09:30:43;23.60;38.50
21171;DHT22;10743;52.160;20.910;2023-12-20T09:33:12;23.70;38.60
21171;DHT22;10743;52.160;20.910;2023-12-20T09:35:39;23.60;38.50
21171;DHT22;10743;52.160;20.910;2023-12-20T09:38:06;23.60;38.50
21171;DHT22;10743;52.160;20.910;2023-12-20T09:40:34;23.60;38.50
21171;DHT22;10743;52.160;20.910;2023-12-20T09:43:04;23.60;38.50
21171;DHT22;10743;52.160;20.910;2023-12-20T09:45:32;23.70;38.50
21171;DHT22;10743;52.160;20.910;2023-12-20T09:47:59;23.70;38.50
21171;DHT22;10743;52.160;20.910;2023-12-20T09:50:27;23.70;38.50
21171;DHT22;10743;52.160;20.910;2023-12-20T09:52:56;23.70;38.60
21171;DHT22;10743;52.160;20.910;2023-12-20T09:55:27;23.70;38.60
21171;DHT22;10743;52.160;20.910;2023-12-20T09:57:55;23.70;38.60
21171;DHT22;10743;52.160;20.910;2023-12-20T10:00:22;23.70;38.60
21171;DHT22;10743;52.160;20.910;2023-12-20T10:02:56;23.70;38.60
21171;DHT22;10743;52.160;20.910;2023-12-20T10:05:29;23.70;38.50
21171;DHT22;10743;52.160;20.910;2023-12-20T10:08:01;23.70;38.50
21171;DHT22;10743;52.160;20.910;2023-12-20T10:10:29;23.70;38.50
21171;DHT22;10743;52.160;20.910;2023-12-20T10:13:11;23.70;38.60
21171;DHT22;10743;52.160;20.910;2023-12-20T10:15:39;23.70;38.40
21171;DHT22;10743;52.160;20.910;2023-12-20T10:18:08;23.70;38.50
21171;DHT22;10743;52.160;20.910;2023-12-20T10:20:36;23.70;38.50
21171;DHT22;10743;52.160;20.910;2023-12-20T10:23:03;23.70;38.60
21171;DHT22;10743;52.160;20.910;2023-12-20T10:25:30;23.70;38.60
21171;DHT22;10743;52.160;20.910;2023-12-20T10:28:12;23.70;38.60
21171;DHT22;10743;52.160;20.910;2023-12-20T10:30:47;23.70;38.70
21171;DHT22;10743;52.160;20.910;2023-12-20T10:33:26;23.70;38.70
21171;DHT22;10743;52.160;20.910;2023-12-20T10:35:56;23.70;38.50
21171;DHT22;10743;52.160;20.910;2023-12-20T10:38:23;23.70;38.50
21171;DHT22;10743;52.160;20.910;2023-12-20T10:40:54;23.70;38.50
21171;DHT22;10743;52.160;20.910;2023-12-20T10:43:26;23.70;38.50
21171;DHT22;10743;52.160;20.910;2023-12-20T10:45:56;23.70;38.50
21171;DHT22;10743;52.160;20.910;2023-12-20T10:48:24;23.70;38.50
21171;DHT22;10743;52.160;20.910;2023-12-20T10:50:56;23.70;38.50
21171;DHT22;10743;52.160;20.910;2023-12-20T10:53:27;23.70;38.40
21171;DHT22;10743;52.160;20.910;2023-12-20T10:55:56;23.70;38.40
21171;DHT22;10743;52.160;20.910;2023-12-20T10:58:26;23.70;38.40
21171;DHT22;10743;52.160;20.910;2023-12-20T11:01:00;23.70;38.50
21171;DHT22;10743;52.160;20.910;2023-12-20T11:03:36;23.70;38.50
21171;DHT22;10743;52.160;20.910;2023-12-20T11:09:25;23.70;38.60
21171;DHT22;10743;52.160;20.910;2023-12-20T11:12:06;23.70;38.60
21171;DHT22;10743;52.160;20.910;2023-12-20T11:14:51;23.70;39.30
21171;DHT22;10743;52.160;20.910;2023-12-20T11:17:19;23.70;38.50
21171;DHT22;10743;52.160;20.910;2023-12-20T11:22:24;23.70;38.40
21171;DHT22;10743;52.160;20.910;2023-12-20T11:24:53;23.70;38.40
21171;DHT22;10743;52.160;20.910;2023-12-20T11:27:20;23.70;38.40
21171;DHT22;10743;52.160;20.910;2023-12-20T11:29:56;23.70;38.40
21171;DHT22;10743;52.160;20.910;2023-12-20T11:37:36;23.70;38.40
21171;DHT22;10743;52.160;20.910;2023-12-20T11:40:12;23.70;38.40
21171;DHT22;10743;52.160;20.910;2023-12-20T11:42:44;23.80;38.50
21171;DHT22;10743;52.160;20.910;2023-12-20T11:45:15;23.70;38.50
21171;DHT22;10743;52.160;20.910;2023-12-20T11:47:46;23.70;38.50
21171;DHT22;10743;52.160;20.910;2023-12-20T11:50:14;23.70;38.50
21171;DHT22;10743;52.160;20.910;2023-12-20T11:52:41;23.70;38.50
21171;DHT22;10743;52.160;20.910;2023-12-20T11:55:08;23.70;38.50
21171;DHT22;10743;52.160;20.910;2023-12-20T11:57:36;23.80;38.40
21171;DHT22;10743;52.160;20.910;2023-12-20T12:00:04;23.80;38.40
21171;DHT22;10743;52.160;20.910;2023-12-20T12:02:38;23.80;38.20
21171;DHT22;10743;52.160;20.910;2023-12-20T12:05:06;23.80;37.80
21171;DHT22;10743;52.160;20.910;2023-12-20T12:07:34;23.90;37.70
21171;DHT22;10743;52.160;20.910;2023-12-20T12:10:02;23.90;37.70
21171;DHT22;10743;52.160;20.910;2023-12-20T12:12:33;23.90;37.70
21171;DHT22;10743;52.160;20.910;2023-12-20T12:15:00;23.90;37.70
21171;DHT22;10743;52.160;20.910;2023-12-20T12:17:27;23.80;37.70
21171;DHT22;10743;52.160;20.910;2023-12-20T12:20:05;23.80;37.80
21171;DHT22;10743;52.160;20.910;2023-12-20T12:22:33;23.80;38.00
21171;DHT22;10743;52.160;20.910;2023-12-20T12:25:12;23.70;38.00
21171;DHT22;10743;52.160;20.910;2023-12-20T12:27:41;23.70;38.00
21171;DHT22;10743;52.160;20.910;2023-12-20T12:30:10;23.70;37.70
21171;DHT22;10743;52.160;20.910;2023-12-20T12:32:39;23.70;37.90
21171;DHT22;10743;52.160;20.910;2023-12-20T12:35:07;23.70;38.00
21171;DHT22;10743;52.160;20.910;2023-12-20T12:37:38;23.60;38.00
21171;DHT22;10743;52.160;20.910;2023-12-20T12:40:11;23.70;38.00
21171;DHT22;10743;52.160;20.910;2023-12-20T12:42:39;23.70;37.90
21171;DHT22;10743;52.160;20.910;2023-12-20T12:45:08;23.70;37.80
21171;DHT22;10743;52.160;20.910;2023-12-20T12:47:35;23.70;37.70
21171;DHT22;10743;52.160;20.910;2023-12-20T12:50:03;23.70;37.60
21171;DHT22;10743;52.160;20.910;2023-12-20T12:52:31;23.70;37.50
21171;DHT22;10743;52.160;20.910;2023-12-20T12:54:58;23.70;37.30
21171;DHT22;10743;52.160;20.910;2023-12-20T12:57:25;23.70;37.40
21171;DHT22;10743;52.160;20.910;2023-12-20T12:59:52;23.70;37.50
21171;DHT22;10743;52.160;20.910;2023-12-20T13:02:19;23.60;37.50
21171;DHT22;10743;52.160;20.910;2023-12-20T13:04:46;23.50;37.60
21171;DHT22;10743;52.160;20.910;2023-12-20T13:07:13;23.60;37.50
21171;DHT22;10743;52.160;20.910;2023-12-20T13:09:40;23.50;37.40
21171;DHT22;10743;52.160;20.910;2023-12-20T13:12:08;23.50;37.50
21171;DHT22;10743;52.160;20.910;2023-12-20T13:14:35;23.50;37.40
21171;DHT22;10743;52.160;20.910;2023-12-20T13:17:06;23.40;37.50
21171;DHT22;10743;52.160;20.910;2023-12-20T13:19:33;23.50;37.50
21171;DHT22;10743;52.160;20.910;2023-12-20T13:22:00;23.50;37.20
21171;DHT22;10743;52.160;20.910;2023-12-20T13:24:27;23.50;37.20
21171;DHT22;10743;52.160;20.910;2023-12-20T13:26:54;23.50;37.30
21171;DHT22;10743;52.160;20.910;2023-12-20T13:29:21;23.50;37.30
21171;DHT22;10743;52.160;20.910;2023-12-20T13:31:49;23.40;37.30
21171;DHT22;10743;52.160;20.910;2023-12-20T13:34:16;23.40;37.50
21171;DHT22;10743;52.160;20.910;2023-12-20T13:36:44;23.40;37.60
21171;DHT22;10743;52.160;20.910;2023-12-20T13:39:14;23.40;37.60
21171;DHT22;10743;52.160;20.910;2023-12-20T13:41:41;23.40;37.50
21171;DHT22;10743;52.160;20.910;2023-12-20T13:44:08;23.40;37.40
21171;DHT22;10743;52.160;20.910;2023-12-20T13:46:36;23.40;37.40
21171;DHT22;10743;52.160;20.910;2023-12-20T13:49:03;23.40;37.30
21171;DHT22;10743;52.160;20.910;2023-12-20T13:51:31;23.40;37.30
21171;DHT22;10743;52.160;20.910;2023-12-20T13:53:58;23.40;37.20
21171;DHT22;10743;52.160;20.910;2023-12-20T13:56:25;23.40;38.00
21171;DHT22;10743;52.160;20.910;2023-12-20T13:58:53;23.40;37.40
21171;DHT22;10743;52.160;20.910;2023-12-20T14:01:20;23.30;37.50
21171;DHT22;10743;52.160;20.910;2023-12-20T14:03:47;23.40;37.30
21171;DHT22;10743;52.160;20.910;2023-12-20T14:06:14;23.40;37.30
21171;DHT22;10743;52.160;20.910;2023-12-20T14:08:41;23.40;37.20
21171;DHT22;10743;52.160;20.910;2023-12-20T14:11:09;23.40;37.80
21171;DHT22;10743;52.160;20.910;2023-12-20T14:13:37;23.40;37.10
21171;DHT22;10743;52.160;20.910;2023-12-20T14:16:04;23.40;36.90
21171;DHT22;10743;52.160;20.910;2023-12-20T14:18:31;23.40;36.70
21171;DHT22;10743;52.160;20.910;2023-12-20T14:20:58;23.40;36.50
21171;DHT22;10743;52.160;20.910;2023-12-20T14:23:25;23.40;36.50
21171;DHT22;10743;52.160;20.910;2023-12-20T14:25:52;23.40;36.60
21171;DHT22;10743;52.160;20.910;2023-12-20T14:28:19;23.40;36.60
21171;DHT22;10743;52.160;20.910;2023-12-20T14:30:47;23.40;36.50
21171;DHT22;10743;52.160;20.910;2023-12-20T14:33:16;23.40;36.40
21171;DHT22;10743;52.160;20.910;2023-12-20T14:35:43;23.30;36.40
21171;DHT22;10743;52.160;20.910;2023-12-20T14:38:11;23.30;36.50
21171;DHT22;10743;52.160;20.910;2023-12-20T14:40:41;23.30;36.60
21171;DHT22;10743;52.160;20.910;2023-12-20T14:43:08;23.30;37.00
21171;DHT22;10743;52.160;20.910;2023-12-20T14:45:35;23.30;36.20
21171;DHT22;10743;52.160;20.910;2023-12-20T14:48:03;23.20;36.20
21171;DHT22;10743;52.160;20.910;2023-12-20T14:50:31;23.30;36.10
21171;DHT22;10743;52.160;20.910;2023-12-20T14:52:58;23.20;36.00
21171;DHT22;10743;52.160;20.910;2023-12-20T14:55:26;23.20;36.20
21171;DHT22;10743;52.160;20.910;2023-12-20T14:57:54;23.20;36.10
21171;DHT22;10743;52.160;20.910;2023-12-20T15:00:21;23.10;35.90
21171;DHT22;10743;52.160;20.910;2023-12-20T15:02:48;23.20;35.90
21171;DHT22;10743;52.160;20.910;2023-12-20T15:05:15;23.10;35.90
21171;DHT22;10743;52.160;20.910;2023-12-20T15:07:44;23.10;35.60
21171;DHT22;10743;52.160;20.910;2023-12-20T15:10:11;23.10;35.80
21171;DHT22;10743;52.160;20.910;2023-12-20T15:12:39;23.10;35.80
21171;DHT22;10743;52.160;20.910;2023-12-20T15:15:06;23.10;35.60
21171;DHT22;10743;52.160;20.910;2023-12-20T15:17:36;23.10;35.60
21171;DHT22;10743;52.160;20.910;2023-12-20T15:20:04;23.10;35.40
21171;DHT22;10743;52.160;20.910;2023-12-20T15:22:31;23.10;35.30
21171;DHT22;10743;52.160;20.910;2023-12-20T15:25:00;23.10;35.50
21171;DHT22;10743;52.160;20.910;2023-12-20T15:27:28;23.10;35.50
21171;DHT22;10743;52.160;20.910;2023-12-20T15:29:55;23.00;35.50
21171;DHT22;10743;52.160;20.910;2023-12-20T15:32:22;23.00;35.60